sensor_id;sensor_type;location;lat;lon;timestamp;P1;durP1;ratioP1;P2;durP2;ratioP2
65230;SDS011;51813;40.666;16.602;2023-06-14T00:00:20;2.90;;;1.40;;
65230;SDS011;51813;40.666;16.602;2023-06-14T00:02:46;1.75;;;1.08;;
65230;SDS011;51813;40.666;16.602;2023-06-14T00:05:12;2.40;;;1.30;;
65230;SDS011;51813;40.666;16.602;2023-06-14T00:07:39;2.65;;;1.50;;
65230;SDS011;51813;40.666;16.602;2023-06-14T00:10:10;2.47;;;1.55;;
65230;SDS011;51813;40.666;16.602;2023-06-14T00:12:36;2.50;;;1.40;;
65230;SDS011;51813;40.666;16.602;2023-06-14T00:15:04;2.63;;;1.42;;
65230;SDS011;51813;40.666;16.602;2023-06-14T00:17:30;2.20;;;1.30;;
65230;SDS011;51813;40.666;16.602;2023-06-14T00:19:56;2.38;;;1.50;;
65230;SDS011;51813;40.666;16.602;2023-06-14T00:22:30;2.28;;;1.40;;
65230;SDS011;51813;40.666;16.602;2023-06-14T00:24:56;2.03;;;1.20;;
65230;SDS011;51813;40.666;16.602;2023-06-14T00:27:22;2.95;;;1.45;;
65230;SDS011;51813;40.666;16.602;2023-06-14T00:29:48;2.50;;;1.40;;
65230;SDS011;51813;40.666;16.602;2023-06-14T00:32:13;2.30;;;1.40;;
65230;SDS011;51813;40.666;16.602;2023-06-14T00:34:39;2.90;;;1.50;;
65230;SDS011;51813;40.666;16.602;2023-06-14T00:37:05;2.13;;;1.30;;
65230;SDS011;51813;40.666;16.602;2023-06-14T00:39:31;2.20;;;1.30;;
65230;SDS011;51813;40.666;16.602;2023-06-14T00:41:56;2.90;;;1.58;;
65230;SDS011;51813;40.666;16.602;2023-06-14T00:44:22;2.72;;;1.45;;
65230;SDS011;51813;40.666;16.602;2023-06-14T00:46:48;2.80;;;1.30;;
65230;SDS011;51813;40.666;16.602;2023-06-14T00:49:14;2.92;;;1.20;;
65230;SDS011;51813;40.666;16.602;2023-06-14T00:51:42;2.80;;;1.45;;
65230;SDS011;51813;40.666;16.602;2023-06-14T00:54:08;2.33;;;1.23;;
65230;SDS011;51813;40.666;16.602;2023-06-14T00:56:37;2.17;;;1.20;;
65230;SDS011;51813;40.666;16.602;2023-06-14T00:59:03;2.42;;;1.30;;
65230;SDS011;51813;40.666;16.602;2023-06-14T01:01:30;2.25;;;1.27;;
65230;SDS011;51813;40.666;16.602;2023-06-14T01:03:59;2.40;;;1.40;;
65230;SDS011;51813;40.666;16.602;2023-06-14T01:06:35;1.80;;;1.15;;
65230;SDS011;51813;40.666;16.602;2023-06-14T01:11:41;2.15;;;1.20;;
65230;SDS011;51813;40.666;16.602;2023-06-14T01:14:23;2.38;;;1.20;;
65230;SDS011;51813;40.666;16.602;2023-06-14T01:16:50;2.13;;;1.30;;
65230;SDS011;51813;40.666;16.602;2023-06-14T01:19:18;4.68;;;1.30;;
65230;SDS011;51813;40.666;16.602;2023-06-14T01:21:47;2.47;;;1.30;;
65230;SDS011;51813;40.666;16.602;2023-06-14T01:24:16;2.45;;;1.20;;
65230;SDS011;51813;40.666;16.602;2023-06-14T01:26:44;2.63;;;1.20;;
65230;SDS011;51813;40.666;16.602;2023-06-14T01:29:16;2.33;;;1.30;;
65230;SDS011;51813;40.666;16.602;2023-06-14T01:31:42;2.60;;;1.20;;
65230;SDS011;51813;40.666;16.602;2023-06-14T01:34:10;2.30;;;1.30;;
65230;SDS011;51813;40.666;16.602;2023-06-14T01:36:36;3.03;;;1.52;;
65230;SDS011;51813;40.666;16.602;2023-06-14T01:39:05;2.53;;;1.15;;
65230;SDS011;51813;40.666;16.602;2023-06-14T01:41:32;3.30;;;1.30;;
65230;SDS011;51813;40.666;16.602;2023-06-14T01:44:00;2.80;;;1.20;;
65230;SDS011;51813;40.666;16.602;2023-06-14T01:46:26;2.47;;;1.30;;
65230;SDS011;51813;40.666;16.602;2023-06-14T01:48:52;2.40;;;1.30;;
65230;SDS011;51813;40.666;16.602;2023-06-14T01:51:18;2.80;;;1.30;;
65230;SDS011;51813;40.666;16.602;2023-06-14T01:53:44;2.20;;;1.30;;
65230;SDS011;51813;40.666;16.602;2023-06-14T01:56:10;1.95;;;1.23;;
65230;SDS011;51813;40.666;16.602;2023-06-14T01:58:35;2.38;;;1.27;;
65230;SDS011;51813;40.666;16.602;2023-06-14T02:01:01;2.88;;;1.35;;
65230;SDS011;51813;40.666;16.602;2023-06-14T02:03:27;2.38;;;1.30;;
65230;SDS011;51813;40.666;16.602;2023-06-14T02:05:53;1.65;;;1.00;;
65230;SDS011;51813;40.666;16.602;2023-06-14T02:08:20;2.40;;;1.17;;
65230;SDS011;51813;40.666;16.602;2023-06-14T02:10:46;2.83;;;1.30;;
65230;SDS011;51813;40.666;16.602;2023-06-14T02:13:11;2.00;;;1.10;;
65230;SDS011;51813;40.666;16.602;2023-06-14T02:15:37;3.13;;;1.20;;
65230;SDS011;51813;40.666;16.602;2023-06-14T02:18:03;2.08;;;1.10;;
65230;SDS011;51813;40.666;16.602;2023-06-14T02:20:29;2.30;;;1.15;;
65230;SDS011;51813;40.666;16.602;2023-06-14T02:22:56;2.80;;;1.40;;
65230;SDS011;51813;40.666;16.602;2023-06-14T02:25:22;1.85;;;1.08;;
65230;SDS011;51813;40.666;16.602;2023-06-14T02:27:48;2.35;;;1.33;;
65230;SDS011;51813;40.666;16.602;2023-06-14T02:30:13;2.33;;;1.50;;
65230;SDS011;51813;40.666;16.602;2023-06-14T02:32:40;2.78;;;1.50;;
65230;SDS011;51813;40.666;16.602;2023-06-14T02:35:08;2.35;;;1.30;;
65230;SDS011;51813;40.666;16.602;2023-06-14T02:37:33;2.20;;;1.30;;
65230;SDS011;51813;40.666;16.602;2023-06-14T02:40:00;1.92;;;1.15;;
65230;SDS011;51813;40.666;16.602;2023-06-14T02:42:25;2.05;;;1.10;;
65230;SDS011;51813;40.666;16.602;2023-06-14T02:44:51;2.35;;;1.35;;
65230;SDS011;51813;40.666;16.602;2023-06-14T02:47:20;3.38;;;1.52;;
65230;SDS011;51813;40.666;16.602;2023-06-14T02:49:46;2.40;;;1.20;;
65230;SDS011;51813;40.666;16.602;2023-06-14T02:52:11;2.53;;;1.20;;
65230;SDS011;51813;40.666;16.602;2023-06-14T02:54:37;2.55;;;1.50;;
65230;SDS011;51813;40.666;16.602;2023-06-14T02:57:03;2.63;;;1.40;;
65230;SDS011;51813;40.666;16.602;2023-06-14T02:59:29;2.15;;;1.30;;
65230;SDS011;51813;40.666;16.602;2023-06-14T03:01:54;2.00;;;1.20;;
65230;SDS011;51813;40.666;16.602;2023-06-14T03:04:20;3.83;;;1.52;;
65230;SDS011;51813;40.666;16.602;2023-06-14T03:06:46;3.28;;;1.50;;
65230;SDS011;51813;40.666;16.602;2023-06-14T03:09:15;2.70;;;1.52;;
65230;SDS011;51813;40.666;16.602;2023-06-14T03:11:41;2.60;;;1.60;;
65230;SDS011;51813;40.666;16.602;2023-06-14T03:14:07;2.80;;;1.50;;
65230;SDS011;51813;40.666;16.602;2023-06-14T03:16:33;3.67;;;1.50;;
65230;SDS011;51813;40.666;16.602;2023-06-14T03:18:59;4.47;;;1.58;;
65230;SDS011;51813;40.666;16.602;2023-06-14T03:21:25;2.90;;;1.50;;
65230;SDS011;51813;40.666;16.602;2023-06-14T03:23:51;2.90;;;1.70;;
65230;SDS011;51813;40.666;16.602;2023-06-14T03:26:18;2.40;;;1.30;;
65230;SDS011;51813;40.666;16.602;2023-06-14T03:28:44;3.13;;;1.55;;
65230;SDS011;51813;40.666;16.602;2023-06-14T03:31:10;4.38;;;1.60;;
65230;SDS011;51813;40.666;16.602;2023-06-14T03:33:36;3.08;;;1.67;;
65230;SDS011;51813;40.666;16.602;2023-06-14T03:36:02;2.60;;;1.63;;
65230;SDS011;51813;40.666;16.602;2023-06-14T03:38:28;3.72;;;1.70;;
65230;SDS011;51813;40.666;16.602;2023-06-14T03:40:54;2.83;;;1.58;;
65230;SDS011;51813;40.666;16.602;2023-06-14T03:43:20;2.58;;;1.60;;
65230;SDS011;51813;40.666;16.602;2023-06-14T03:45:46;3.60;;;1.75;;
65230;SDS011;51813;40.666;16.602;2023-06-14T03:48:11;2.78;;;1.70;;
65230;SDS011;51813;40.666;16.602;2023-06-14T03:50:37;3.80;;;2.00;;
65230;SDS011;51813;40.666;16.602;2023-06-14T03:53:07;2.85;;;1.67;;
65230;SDS011;51813;40.666;16.602;2023-06-14T03:55:33;2.47;;;1.50;;
65230;SDS011;51813;40.666;16.602;2023-06-14T03:57:59;2.58;;;1.52;;
65230;SDS011;51813;40.666;16.602;2023-06-14T04:00:25;3.05;;;1.50;;
65230;SDS011;51813;40.666;16.602;2023-06-14T04:02:51;3.47;;;1.90;;
65230;SDS011;51813;40.666;16.602;2023-06-14T04:05:18;3.90;;;1.50;;
65230;SDS011;51813;40.666;16.602;2023-06-14T04:07:44;2.85;;;1.60;;
65230;SDS011;51813;40.666;16.602;2023-06-14T04:10:11;2.70;;;1.52;;
65230;SDS011;51813;40.666;16.602;2023-06-14T04:12:38;3.20;;;1.70;;
65230;SDS011;51813;40.666;16.602;2023-06-14T04:15:04;3.08;;;1.65;;
65230;SDS011;51813;40.666;16.602;2023-06-14T04:17:34;3.25;;;1.55;;
65230;SDS011;51813;40.666;16.602;2023-06-14T04:20:00;2.90;;;1.70;;
65230;SDS011;51813;40.666;16.602;2023-06-14T04:22:27;3.03;;;1.70;;
65230;SDS011;51813;40.666;16.602;2023-06-14T04:24:56;3.92;;;1.73;;
65230;SDS011;51813;40.666;16.602;2023-06-14T04:27:22;2.97;;;1.80;;
65230;SDS011;51813;40.666;16.602;2023-06-14T04:29:53;3.05;;;1.52;;
65230;SDS011;51813;40.666;16.602;2023-06-14T04:32:28;2.58;;;1.60;;
65230;SDS011;51813;40.666;16.602;2023-06-14T04:34:57;3.05;;;1.70;;
65230;SDS011;51813;40.666;16.602;2023-06-14T04:37:24;2.50;;;1.60;;
65230;SDS011;51813;40.666;16.602;2023-06-14T04:39:53;3.42;;;1.70;;
65230;SDS011;51813;40.666;16.602;2023-06-14T04:42:20;3.05;;;1.73;;
65230;SDS011;51813;40.666;16.602;2023-06-14T04:44:50;2.75;;;1.60;;
65230;SDS011;51813;40.666;16.602;2023-06-14T04:47:16;3.33;;;1.88;;
65230;SDS011;51813;40.666;16.602;2023-06-14T04:49:42;3.35;;;1.77;;
65230;SDS011;51813;40.666;16.602;2023-06-14T04:52:08;2.80;;;1.58;;
65230;SDS011;51813;40.666;16.602;2023-06-14T04:54:35;3.47;;;1.90;;
65230;SDS011;51813;40.666;16.602;2023-06-14T04:57:07;3.05;;;1.60;;
65230;SDS011;51813;40.666;16.602;2023-06-14T04:59:33;2.80;;;1.73;;
65230;SDS011;51813;40.666;16.602;2023-06-14T05:02:00;3.03;;;1.75;;
65230;SDS011;51813;40.666;16.602;2023-06-14T05:04:26;3.03;;;1.70;;
65230;SDS011;51813;40.666;16.602;2023-06-14T05:06:53;3.38;;;1.90;;
65230;SDS011;51813;40.666;16.602;2023-06-14T05:09:22;3.20;;;1.60;;
65230;SDS011;51813;40.666;16.602;2023-06-14T05:11:47;3.00;;;1.70;;
65230;SDS011;51813;40.666;16.602;2023-06-14T05:14:13;2.40;;;1.50;;
65230;SDS011;51813;40.666;16.602;2023-06-14T05:16:39;2.65;;;1.70;;
65230;SDS011;51813;40.666;16.602;2023-06-14T05:19:05;4.20;;;2.20;;
65230;SDS011;51813;40.666;16.602;2023-06-14T05:21:31;3.83;;;1.70;;
65230;SDS011;51813;40.666;16.602;2023-06-14T05:23:59;3.55;;;1.75;;
65230;SDS011;51813;40.666;16.602;2023-06-14T05:26:25;3.15;;;1.65;;
65230;SDS011;51813;40.666;16.602;2023-06-14T05:28:55;2.35;;;1.60;;
65230;SDS011;51813;40.666;16.602;2023-06-14T05:31:26;2.90;;;1.70;;
65230;SDS011;51813;40.666;16.602;2023-06-14T05:33:53;2.78;;;1.60;;
65230;SDS011;51813;40.666;16.602;2023-06-14T05:36:21;3.22;;;1.70;;
65230;SDS011;51813;40.666;16.602;2023-06-14T05:38:47;2.30;;;1.40;;
65230;SDS011;51813;40.666;16.602;2023-06-14T05:41:13;2.72;;;1.70;;
65230;SDS011;51813;40.666;16.602;2023-06-14T05:43:39;2.70;;;1.55;;
65230;SDS011;51813;40.666;16.602;2023-06-14T05:46:04;3.78;;;1.60;;
65230;SDS011;51813;40.666;16.602;2023-06-14T05:48:30;2.95;;;1.50;;
65230;SDS011;51813;40.666;16.602;2023-06-14T05:50:56;4.07;;;1.70;;
65230;SDS011;51813;40.666;16.602;2023-06-14T05:53:22;3.40;;;1.60;;
65230;SDS011;51813;40.666;16.602;2023-06-14T05:55:47;3.63;;;1.70;;
65230;SDS011;51813;40.666;16.602;2023-06-14T05:58:14;3.22;;;1.80;;
65230;SDS011;51813;40.666;16.602;2023-06-14T06:00:39;2.80;;;1.70;;
65230;SDS011;51813;40.666;16.602;2023-06-14T06:03:05;3.38;;;1.80;;
65230;SDS011;51813;40.666;16.602;2023-06-14T06:05:33;2.63;;;1.50;;
65230;SDS011;51813;40.666;16.602;2023-06-14T06:07:58;3.75;;;1.80;;
65230;SDS011;51813;40.666;16.602;2023-06-14T06:10:25;2.60;;;1.65;;
65230;SDS011;51813;40.666;16.602;2023-06-14T06:12:51;3.30;;;1.90;;
65230;SDS011;51813;40.666;16.602;2023-06-14T06:15:17;3.22;;;1.60;;
65230;SDS011;51813;40.666;16.602;2023-06-14T06:17:43;3.40;;;1.70;;
65230;SDS011;51813;40.666;16.602;2023-06-14T06:20:09;2.83;;;1.60;;
65230;SDS011;51813;40.666;16.602;2023-06-14T06:22:36;2.90;;;1.50;;
65230;SDS011;51813;40.666;16.602;2023-06-14T06:25:02;4.25;;;2.00;;
65230;SDS011;51813;40.666;16.602;2023-06-14T06:27:28;2.90;;;1.73;;
65230;SDS011;51813;40.666;16.602;2023-06-14T06:29:54;3.08;;;1.67;;
65230;SDS011;51813;40.666;16.602;2023-06-14T06:32:21;3.28;;;1.67;;
65230;SDS011;51813;40.666;16.602;2023-06-14T06:34:47;3.78;;;2.08;;
65230;SDS011;51813;40.666;16.602;2023-06-14T06:37:13;2.92;;;1.70;;
65230;SDS011;51813;40.666;16.602;2023-06-14T06:39:39;3.05;;;1.83;;
65230;SDS011;51813;40.666;16.602;2023-06-14T06:42:05;3.83;;;1.63;;
65230;SDS011;51813;40.666;16.602;2023-06-14T06:44:31;3.00;;;1.55;;
65230;SDS011;51813;40.666;16.602;2023-06-14T06:46:57;5.22;;;1.92;;
65230;SDS011;51813;40.666;16.602;2023-06-14T06:49:23;3.17;;;1.85;;
65230;SDS011;51813;40.666;16.602;2023-06-14T06:51:59;3.40;;;1.63;;
65230;SDS011;51813;40.666;16.602;2023-06-14T06:54:28;3.53;;;2.00;;
65230;SDS011;51813;40.666;16.602;2023-06-14T06:56:54;3.85;;;2.05;;
65230;SDS011;51813;40.666;16.602;2023-06-14T06:59:20;3.67;;;1.90;;
65230;SDS011;51813;40.666;16.602;2023-06-14T07:01:46;4.47;;;2.30;;
65230;SDS011;51813;40.666;16.602;2023-06-14T07:04:12;2.78;;;1.85;;
65230;SDS011;51813;40.666;16.602;2023-06-14T07:06:38;3.97;;;2.08;;
65230;SDS011;51813;40.666;16.602;2023-06-14T07:09:04;3.05;;;1.90;;
65230;SDS011;51813;40.666;16.602;2023-06-14T07:11:33;3.00;;;2.05;;
65230;SDS011;51813;40.666;16.602;2023-06-14T07:13:59;2.95;;;1.88;;
65230;SDS011;51813;40.666;16.602;2023-06-14T07:16:25;3.38;;;1.80;;
65230;SDS011;51813;40.666;16.602;2023-06-14T07:18:51;3.83;;;1.80;;
65230;SDS011;51813;40.666;16.602;2023-06-14T07:21:17;4.25;;;2.10;;
65230;SDS011;51813;40.666;16.602;2023-06-14T07:23:43;3.95;;;2.13;;
65230;SDS011;51813;40.666;16.602;2023-06-14T07:26:08;3.90;;;1.88;;
65230;SDS011;51813;40.666;16.602;2023-06-14T07:28:34;5.22;;;2.30;;
65230;SDS011;51813;40.666;16.602;2023-06-14T07:31:00;7.28;;;2.53;;
65230;SDS011;51813;40.666;16.602;2023-06-14T07:33:26;4.22;;;2.13;;
65230;SDS011;51813;40.666;16.602;2023-06-14T07:35:52;3.63;;;2.30;;
65230;SDS011;51813;40.666;16.602;2023-06-14T07:38:18;3.40;;;2.10;;
65230;SDS011;51813;40.666;16.602;2023-06-14T07:40:43;4.93;;;2.45;;
65230;SDS011;51813;40.666;16.602;2023-06-14T07:43:09;3.47;;;2.20;;
65230;SDS011;51813;40.666;16.602;2023-06-14T07:45:35;3.78;;;1.95;;
65230;SDS011;51813;40.666;16.602;2023-06-14T07:48:02;5.03;;;2.50;;
65230;SDS011;51813;40.666;16.602;2023-06-14T07:50:28;6.88;;;2.60;;
65230;SDS011;51813;40.666;16.602;2023-06-14T07:52:54;4.22;;;2.22;;
65230;SDS011;51813;40.666;16.602;2023-06-14T07:55:20;4.72;;;2.40;;
65230;SDS011;51813;40.666;16.602;2023-06-14T07:57:45;3.85;;;2.30;;
65230;SDS011;51813;40.666;16.602;2023-06-14T08:00:11;4.53;;;2.50;;
65230;SDS011;51813;40.666;16.602;2023-06-14T08:02:40;3.63;;;2.08;;
65230;SDS011;51813;40.666;16.602;2023-06-14T08:05:08;3.30;;;2.20;;
65230;SDS011;51813;40.666;16.602;2023-06-14T08:10:07;3.45;;;2.20;;
65230;SDS011;51813;40.666;16.602;2023-06-14T08:12:33;5.15;;;2.53;;
65230;SDS011;51813;40.666;16.602;2023-06-14T08:14:59;3.80;;;2.38;;
65230;SDS011;51813;40.666;16.602;2023-06-14T08:17:25;3.08;;;1.90;;
65230;SDS011;51813;40.666;16.602;2023-06-14T08:19:51;3.17;;;2.05;;
65230;SDS011;51813;40.666;16.602;2023-06-14T08:22:19;3.92;;;2.28;;
65230;SDS011;51813;40.666;16.602;2023-06-14T08:24:46;4.50;;;2.05;;
65230;SDS011;51813;40.666;16.602;2023-06-14T08:27:12;4.80;;;2.78;;
65230;SDS011;51813;40.666;16.602;2023-06-14T08:29:38;6.78;;;3.70;;
65230;SDS011;51813;40.666;16.602;2023-06-14T08:32:05;3.58;;;2.30;;
65230;SDS011;51813;40.666;16.602;2023-06-14T08:34:31;5.78;;;3.85;;
65230;SDS011;51813;40.666;16.602;2023-06-14T08:36:57;6.93;;;4.68;;
65230;SDS011;51813;40.666;16.602;2023-06-14T08:39:23;6.47;;;3.90;;
65230;SDS011;51813;40.666;16.602;2023-06-14T08:41:48;4.60;;;2.88;;
65230;SDS011;51813;40.666;16.602;2023-06-14T08:44:17;7.88;;;3.72;;
65230;SDS011;51813;40.666;16.602;2023-06-14T08:46:43;4.60;;;3.15;;
65230;SDS011;51813;40.666;16.602;2023-06-14T08:49:12;4.43;;;3.20;;
65230;SDS011;51813;40.666;16.602;2023-06-14T08:51:39;5.93;;;4.10;;
65230;SDS011;51813;40.666;16.602;2023-06-14T08:54:05;5.63;;;4.18;;
65230;SDS011;51813;40.666;16.602;2023-06-14T08:56:32;6.95;;;5.10;;
65230;SDS011;51813;40.666;16.602;2023-06-14T08:58:59;6.13;;;4.60;;
65230;SDS011;51813;40.666;16.602;2023-06-14T09:01:37;5.68;;;3.53;;
65230;SDS011;51813;40.666;16.602;2023-06-14T09:04:03;4.50;;;3.35;;
65230;SDS011;51813;40.666;16.602;2023-06-14T09:06:32;5.40;;;3.30;;
65230;SDS011;51813;40.666;16.602;2023-06-14T09:08:58;7.28;;;4.13;;
65230;SDS011;51813;40.666;16.602;2023-06-14T09:11:23;4.70;;;2.95;;
65230;SDS011;51813;40.666;16.602;2023-06-14T09:13:51;5.65;;;3.25;;
65230;SDS011;51813;40.666;16.602;2023-06-14T09:16:17;4.88;;;3.63;;
65230;SDS011;51813;40.666;16.602;2023-06-14T09:18:46;5.40;;;3.50;;
65230;SDS011;51813;40.666;16.602;2023-06-14T09:21:13;5.35;;;3.35;;
65230;SDS011;51813;40.666;16.602;2023-06-14T09:23:41;5.53;;;3.55;;
65230;SDS011;51813;40.666;16.602;2023-06-14T09:26:12;4.97;;;3.88;;
65230;SDS011;51813;40.666;16.602;2023-06-14T09:28:42;4.88;;;3.33;;
65230;SDS011;51813;40.666;16.602;2023-06-14T09:31:09;4.93;;;3.63;;
65230;SDS011;51813;40.666;16.602;2023-06-14T09:33:36;4.97;;;3.75;;
65230;SDS011;51813;40.666;16.602;2023-06-14T09:36:02;4.50;;;3.55;;
65230;SDS011;51813;40.666;16.602;2023-06-14T09:38:28;5.15;;;3.42;;
65230;SDS011;51813;40.666;16.602;2023-06-14T09:40:57;5.32;;;3.47;;
65230;SDS011;51813;40.666;16.602;2023-06-14T09:43:23;5.22;;;3.80;;
65230;SDS011;51813;40.666;16.602;2023-06-14T09:45:52;6.07;;;4.00;;
65230;SDS011;51813;40.666;16.602;2023-06-14T09:48:19;6.25;;;3.63;;
65230;SDS011;51813;40.666;16.602;2023-06-14T09:50:45;4.68;;;3.55;;
65230;SDS011;51813;40.666;16.602;2023-06-14T09:53:12;5.30;;;3.65;;
65230;SDS011;51813;40.666;16.602;2023-06-14T09:55:40;6.00;;;4.22;;
65230;SDS011;51813;40.666;16.602;2023-06-14T09:58:07;5.65;;;3.80;;
65230;SDS011;51813;40.666;16.602;2023-06-14T10:00:35;5.18;;;3.50;;
65230;SDS011;51813;40.666;16.602;2023-06-14T10:03:16;6.10;;;3.67;;
65230;SDS011;51813;40.666;16.602;2023-06-14T10:05:47;5.28;;;3.72;;
65230;SDS011;51813;40.666;16.602;2023-06-14T10:08:19;9.93;;;3.83;;
65230;SDS011;51813;40.666;16.602;2023-06-14T10:10:50;5.05;;;3.30;;
65230;SDS011;51813;40.666;16.602;2023-06-14T10:13:16;7.53;;;3.65;;
65230;SDS011;51813;40.666;16.602;2023-06-14T10:23:41;5.28;;;3.50;;
65230;SDS011;51813;40.666;16.602;2023-06-14T10:26:08;4.90;;;3.15;;
65230;SDS011;51813;40.666;16.602;2023-06-14T10:28:42;5.65;;;3.92;;
65230;SDS011;51813;40.666;16.602;2023-06-14T10:31:39;5.15;;;3.45;;
65230;SDS011;51813;40.666;16.602;2023-06-14T10:34:12;4.53;;;3.45;;
65230;SDS011;51813;40.666;16.602;2023-06-14T10:37:05;4.25;;;3.30;;
65230;SDS011;51813;40.666;16.602;2023-06-14T10:39:42;4.72;;;3.47;;
65230;SDS011;51813;40.666;16.602;2023-06-14T10:42:10;5.25;;;3.70;;
65230;SDS011;51813;40.666;16.602;2023-06-14T10:47:05;5.80;;;3.83;;
65230;SDS011;51813;40.666;16.602;2023-06-14T10:49:39;4.80;;;3.28;;
65230;SDS011;51813;40.666;16.602;2023-06-14T10:57:40;4.65;;;3.30;;
65230;SDS011;51813;40.666;16.602;2023-06-14T11:00:07;4.95;;;3.38;;
65230;SDS011;51813;40.666;16.602;2023-06-14T11:08:22;5.47;;;3.30;;
65230;SDS011;51813;40.666;16.602;2023-06-14T11:11:05;4.15;;;3.20;;
65230;SDS011;51813;40.666;16.602;2023-06-14T11:13:33;4.57;;;3.17;;
65230;SDS011;51813;40.666;16.602;2023-06-14T11:15:59;4.95;;;3.35;;
65230;SDS011;51813;40.666;16.602;2023-06-14T11:18:25;4.47;;;2.80;;
65230;SDS011;51813;40.666;16.602;2023-06-14T11:20:52;4.50;;;3.10;;
65230;SDS011;51813;40.666;16.602;2023-06-14T11:23:18;4.60;;;3.53;;
65230;SDS011;51813;40.666;16.602;2023-06-14T11:25:49;5.07;;;3.13;;
65230;SDS011;51813;40.666;16.602;2023-06-14T11:28:17;3.50;;;2.63;;
65230;SDS011;51813;40.666;16.602;2023-06-14T11:30:45;5.90;;;3.30;;
65230;SDS011;51813;40.666;16.602;2023-06-14T11:33:11;4.25;;;3.10;;
65230;SDS011;51813;40.666;16.602;2023-06-14T11:35:43;4.10;;;2.97;;
65230;SDS011;51813;40.666;16.602;2023-06-14T11:38:09;4.60;;;3.20;;
65230;SDS011;51813;40.666;16.602;2023-06-14T11:40:37;4.63;;;2.88;;
65230;SDS011;51813;40.666;16.602;2023-06-14T11:43:03;3.67;;;2.90;;
65230;SDS011;51813;40.666;16.602;2023-06-14T11:45:29;4.32;;;2.92;;
65230;SDS011;51813;40.666;16.602;2023-06-14T11:47:56;4.15;;;2.92;;
65230;SDS011;51813;40.666;16.602;2023-06-14T11:50:23;5.10;;;3.00;;
65230;SDS011;51813;40.666;16.602;2023-06-14T11:52:55;4.38;;;3.10;;
65230;SDS011;51813;40.666;16.602;2023-06-14T11:55:22;3.47;;;2.60;;
65230;SDS011;51813;40.666;16.602;2023-06-14T11:57:49;4.28;;;2.90;;
65230;SDS011;51813;40.666;16.602;2023-06-14T12:00:15;4.65;;;2.65;;
65230;SDS011;51813;40.666;16.602;2023-06-14T12:02:42;3.88;;;2.60;;
65230;SDS011;51813;40.666;16.602;2023-06-14T12:05:20;4.10;;;2.80;;
65230;SDS011;51813;40.666;16.602;2023-06-14T12:07:46;5.78;;;2.78;;
65230;SDS011;51813;40.666;16.602;2023-06-14T12:10:12;3.97;;;2.80;;
65230;SDS011;51813;40.666;16.602;2023-06-14T12:12:39;3.20;;;2.60;;
65230;SDS011;51813;40.666;16.602;2023-06-14T12:15:07;4.28;;;2.72;;
65230;SDS011;51813;40.666;16.602;2023-06-14T12:17:34;4.15;;;2.70;;
65230;SDS011;51813;40.666;16.602;2023-06-14T12:20:13;3.60;;;2.60;;
65230;SDS011;51813;40.666;16.602;2023-06-14T12:25:27;3.83;;;2.80;;
65230;SDS011;51813;40.666;16.602;2023-06-14T12:27:56;3.95;;;2.53;;
65230;SDS011;51813;40.666;16.602;2023-06-14T12:30:22;3.72;;;2.53;;
65230;SDS011;51813;40.666;16.602;2023-06-14T12:32:48;3.47;;;2.58;;
65230;SDS011;51813;40.666;16.602;2023-06-14T12:35:15;3.70;;;2.45;;
65230;SDS011;51813;40.666;16.602;2023-06-14T12:37:40;3.80;;;2.88;;
65230;SDS011;51813;40.666;16.602;2023-06-14T12:40:06;4.00;;;3.03;;
65230;SDS011;51813;40.666;16.602;2023-06-14T12:42:32;4.00;;;2.75;;
65230;SDS011;51813;40.666;16.602;2023-06-14T12:44:59;3.58;;;2.70;;
65230;SDS011;51813;40.666;16.602;2023-06-14T12:47:25;3.75;;;2.60;;
65230;SDS011;51813;40.666;16.602;2023-06-14T12:49:50;3.35;;;2.20;;
65230;SDS011;51813;40.666;16.602;2023-06-14T12:52:16;3.58;;;2.50;;
65230;SDS011;51813;40.666;16.602;2023-06-14T12:54:42;3.60;;;2.65;;
65230;SDS011;51813;40.666;16.602;2023-06-14T12:57:07;4.47;;;2.67;;
65230;SDS011;51813;40.666;16.602;2023-06-14T12:59:34;3.40;;;2.47;;
65230;SDS011;51813;40.666;16.602;2023-06-14T13:02:16;3.20;;;2.50;;
65230;SDS011;51813;40.666;16.602;2023-06-14T13:04:43;4.35;;;2.70;;
65230;SDS011;51813;40.666;16.602;2023-06-14T13:07:09;3.67;;;2.40;;
65230;SDS011;51813;40.666;16.602;2023-06-14T13:09:36;3.67;;;2.50;;
65230;SDS011;51813;40.666;16.602;2023-06-14T13:12:02;3.60;;;2.80;;
65230;SDS011;51813;40.666;16.602;2023-06-14T13:14:28;4.10;;;2.60;;
65230;SDS011;51813;40.666;16.602;2023-06-14T13:16:54;4.22;;;2.80;;
65230;SDS011;51813;40.666;16.602;2023-06-14T13:19:20;3.67;;;2.42;;
65230;SDS011;51813;40.666;16.602;2023-06-14T13:21:46;4.35;;;2.50;;
65230;SDS011;51813;40.666;16.602;2023-06-14T13:24:12;4.20;;;2.90;;
65230;SDS011;51813;40.666;16.602;2023-06-14T13:26:38;3.42;;;2.58;;
65230;SDS011;51813;40.666;16.602;2023-06-14T13:29:04;5.00;;;3.10;;
65230;SDS011;51813;40.666;16.602;2023-06-14T13:31:30;3.80;;;2.90;;
65230;SDS011;51813;40.666;16.602;2023-06-14T13:33:55;4.20;;;3.30;;
65230;SDS011;51813;40.666;16.602;2023-06-14T13:36:21;5.03;;;3.30;;
65230;SDS011;51813;40.666;16.602;2023-06-14T13:38:47;5.00;;;3.60;;
65230;SDS011;51813;40.666;16.602;2023-06-14T13:41:13;5.13;;;3.38;;
65230;SDS011;51813;40.666;16.602;2023-06-14T13:43:38;4.72;;;3.35;;
65230;SDS011;51813;40.666;16.602;2023-06-14T13:46:04;5.47;;;3.45;;
65230;SDS011;51813;40.666;16.602;2023-06-14T13:48:30;4.55;;;3.53;;
65230;SDS011;51813;40.666;16.602;2023-06-14T13:50:55;3.92;;;3.00;;
65230;SDS011;51813;40.666;16.602;2023-06-14T13:53:22;4.13;;;3.15;;
65230;SDS011;51813;40.666;16.602;2023-06-14T13:55:48;4.22;;;3.40;;
65230;SDS011;51813;40.666;16.602;2023-06-14T13:58:14;4.20;;;3.00;;
65230;SDS011;51813;40.666;16.602;2023-06-14T14:00:40;4.75;;;3.05;;
65230;SDS011;51813;40.666;16.602;2023-06-14T14:03:06;4.22;;;3.20;;
65230;SDS011;51813;40.666;16.602;2023-06-14T14:05:32;4.95;;;3.45;;
65230;SDS011;51813;40.666;16.602;2023-06-14T14:07:58;5.35;;;3.50;;
65230;SDS011;51813;40.666;16.602;2023-06-14T14:10:26;4.80;;;3.45;;
65230;SDS011;51813;40.666;16.602;2023-06-14T14:12:52;4.30;;;3.40;;
65230;SDS011;51813;40.666;16.602;2023-06-14T14:15:19;5.28;;;3.70;;
65230;SDS011;51813;40.666;16.602;2023-06-14T14:17:45;6.03;;;4.22;;
65230;SDS011;51813;40.666;16.602;2023-06-14T14:20:12;6.18;;;4.20;;
65230;SDS011;51813;40.666;16.602;2023-06-14T14:22:41;4.70;;;3.83;;
65230;SDS011;51813;40.666;16.602;2023-06-14T14:25:07;5.32;;;4.22;;
65230;SDS011;51813;40.666;16.602;2023-06-14T14:27:33;6.05;;;4.20;;
65230;SDS011;51813;40.666;16.602;2023-06-14T14:29:59;6.03;;;3.95;;
65230;SDS011;51813;40.666;16.602;2023-06-14T14:32:25;6.45;;;4.18;;
65230;SDS011;51813;40.666;16.602;2023-06-14T14:34:50;4.78;;;4.00;;
65230;SDS011;51813;40.666;16.602;2023-06-14T14:37:16;5.80;;;4.45;;
65230;SDS011;51813;40.666;16.602;2023-06-14T14:39:43;5.65;;;4.43;;
65230;SDS011;51813;40.666;16.602;2023-06-14T14:42:09;6.70;;;4.32;;
65230;SDS011;51813;40.666;16.602;2023-06-14T14:44:37;6.25;;;4.63;;
65230;SDS011;51813;40.666;16.602;2023-06-14T14:47:03;5.82;;;4.40;;
65230;SDS011;51813;40.666;16.602;2023-06-14T14:49:30;6.20;;;4.45;;
65230;SDS011;51813;40.666;16.602;2023-06-14T14:51:56;5.65;;;4.13;;
65230;SDS011;51813;40.666;16.602;2023-06-14T14:54:22;6.05;;;4.20;;
65230;SDS011;51813;40.666;16.602;2023-06-14T14:56:48;7.25;;;4.68;;
65230;SDS011;51813;40.666;16.602;2023-06-14T14:59:14;5.95;;;4.00;;
65230;SDS011;51813;40.666;16.602;2023-06-14T15:01:40;6.13;;;4.15;;